Detalii statie UNIC PROD [00001D09]

Toti senzorii

Date Temperatura solului [C]Precipitatii [mm]Voltaj baterie [mV]Leaf Wetness [Min]HC Air temperature [C]HC Relative humidity [%]Punctul de roua [C]
medieminmaxsumaultimatimpmedieminmaxmediemediemin
2019-08-15 20:00:00 0 6884 24.16 22.98 25.37 52.07 13.5 13.3
2019-08-15 21:00:00 0 6884 21.75 20.78 22.67 59.87 13.3 13.2
2019-08-15 22:00:00 0 6874 20.26 19.77 20.74 64.68 13.2 12.9
2019-08-15 23:00:00 0 6874 19.79 19.68 19.94 64.43 12.7 12.6
2019-08-16 00:00:00 0 6874 19.72 19.35 20.01 62.99 12.2 12.1
2019-08-16 01:00:00 0 6854 18.68 18.34 19.26 67.14 12.3 12.2
2019-08-16 02:00:00 0 6854 17.92 17.55 18.38 71.56 12.5 12.3
2019-08-16 03:00:00 0 6854 17.49 17.24 17.72 73.54 12.5 12.3
2019-08-16 04:00:00 0 6844 16.52 15.86 17.14 77.81 12.5 12.4
2019-08-16 05:00:00 0 6834 16.98 15.85 17.45 74.96 12.3 11.9
2019-08-16 06:00:00 0 6816 16.83 16.5 17.18 74.48 12.1 11.9
2019-08-16 07:00:00 0 6806 16.18 15.72 16.52 81.17 12.8 12.5
2019-08-16 08:00:00 0 6834 16.93 16.07 17.87 87.62 14.6 12.9
2019-08-16 09:00:00 0 7010 19.01 17.83 20.63 66.23 12.3 11.5
2019-08-16 10:00:00 0 7050 20 19.63 20.51 62.11 12.3 12
2019-08-16 11:00:00 0 7098 21.09 20.3 22.24 58.1 12.4 12
2019-08-16 12:00:00 0 7216 22.49 21.6 23.2 52.62 12.1 11.5
2019-08-16 13:00:00 0 7216 22.96 22.11 23.8 51.58 12.3 11
2019-08-16 14:00:00 0 7226 24.87 23.8 26.31 47.24 12.6 11
2019-08-16 15:00:00 0 7226 26.02 24.35 28.88 47.05 13.4 12
2019-08-16 16:00:00 0 7216 26.92 25.25 28.37 46.06 14.1 12
2019-08-16 17:00:00 0 7196 27.28 26.56 28.43 43.69 13.6 12.4
2019-08-16 18:00:00 0 7206 26.59 26.31 27.01 47.96 14.4 13.2
2019-08-16 19:00:00 0 7010 25.77 24.81 26.57 45.96 13 11.5
2019-08-16 20:00:00 0 6884 23.69 21.4 26.1 62.97 16 14
2019-08-16 21:00:00 0 6884 18.59 17.15 21 82.62 15.4 14.6
2019-08-16 22:00:00 0 6874 16.62 16.08 17.33 96.31 15.9 15.6
2019-08-16 23:00:00 0 6874 17.69 15.93 18.78 80.89 14 12.5
2019-08-17 00:00:00 0 6864 15.83 15.28 16.94 86.38 13.4 12.6
2019-08-17 01:00:00 0 6864 14.01 13.45 15.05 97.31 13.4 13.1
2019-08-17 02:00:00 0 6854 13.52 13.38 13.66 99.91 13.4 13.2
2019-08-17 03:00:00 0 6844 12.86 12.57 13.16 100 12.8 12.5
2019-08-17 04:00:00 0 6834 13.2 12.76 13.45 100 13.1 12.7
2019-08-17 05:00:00 0 6826 13.2 12.75 13.72 100 13.1 12.7
2019-08-17 06:00:00 0 6816 12.18 11.8 12.69 100 12.1 11.8
2019-08-17 07:00:00 0 6806 12.55 12.01 13.21 100 12.5 12
2019-08-17 08:00:00 0 6844 15.15 13.33 16.04 100 15.1 13.3
2019-08-17 09:00:00 0 6972 18.02 16.21 20.17 92.16 16.5 15.1
2019-08-17 10:00:00 0 7030 20.88 20.38 21.1 71.64 15.3 14.2
2019-08-17 11:00:00 0 7070 21.97 20.97 22.6 67.62 15.5 14.5
2019-08-17 12:00:00 0 7080 23.64 22.95 24.76 55.94 14 11
2019-08-17 13:00:00 0 7216 25.44 24.28 27.04 43.44 11.9 11.1
2019-08-17 14:00:00 0 7216 26.99 25.74 28.71 41.69 12.6 10.7
2019-08-17 15:00:00 0 7226 28.49 27.62 29.55 35.57 11.4 9.1
2019-08-17 16:00:00 0 7206 28.7 26.92 30.07 30.49 9.3 8.2
2019-08-17 17:00:00 0 7226 26.42 25.78 27.75 35.63 9.7 8.1
2019-08-17 18:00:00 0 7206 27.8 27.04 28.65 34.69 10.5 9.5
2019-08-17 19:00:00 0 7206 26.78 26.09 27.5 38.37 11.1 9.9